This is the latest recevied weather packets stored in our database for station/object GBTWP-2. If no packets are shown the sender has not sent any weather packets the latest 10 day(s).
| Time | Temp. | Humidity | Pressure | Rain* | Wind** | Luminosity | Snow |
|---|---|---|---|---|---|---|---|
| 1777654202 | 7.78° C | 61% | 1016.6 hPa | 0 mm | - | 93 W/m² | - |
| 1777653902 | 7.78° C | 61% | 1016.5 hPa | 0 mm | - | 97 W/m² | - |
| 1777653602 | 7.78° C | 62% | 1016.5 hPa | 0 mm | - | 92 W/m² | - |
| 1777653301 | 7.78° C | 62% | 1016.5 hPa | 0 mm | - | 84 W/m² | - |
| 1777653002 | 7.22° C | 62% | 1016.6 hPa | 0 mm | - | 62 W/m² | - |
| 1777651802 | 8.33° C | 57% | 1016.5 hPa | 0 mm | - | 59 W/m² | - |
| 1777651502 | 8.33° C | 59% | 1016.4 hPa | 0 mm | - | 112 W/m² | - |
| 1777651202 | 8.33° C | 58% | 1016.4 hPa | 0 mm | - | 152 W/m² | - |
| 1777650902 | 8.33° C | 57% | 1016.5 hPa | 0 mm | - | 105 W/m² | - |
| 1777650002 | 8.89° C | 53% | 1016.5 hPa | 0 mm | - | 189 W/m² | - |
| 1777649702 | 8.33° C | 58% | 1016.3 hPa | 0 mm | - | 186 W/m² | - |
| 1777648802 | 8.33° C | 59% | 1016.4 hPa | 0 mm | - | 164 W/m² | - |
| 1777647902 | 7.78° C | 66% | 1016.5 hPa | 0 mm | - | 141 W/m² | - |
| 1777647002 | 7.78° C | 67% | 1016.6 hPa | 0 mm | - | 155 W/m² | - |
| 1777646102 | 7.22° C | 71% | 1016.6 hPa | 0 mm | - | 166 W/m² | - |
| 1777644902 | 6.67° C | 69% | 1016.7 hPa | 0 mm | - | 111 W/m² | - |
| 1777644602 | 6.67° C | 71% | 1016.7 hPa | 0 mm | - | 114 W/m² | - |
| 1777644302 | 6.67° C | 72% | 1017.1 hPa | 0 mm | - | 95 W/m² | - |
| 1777644002 | 6.11° C | 74% | 1016.6 hPa | 0 mm | - | 97 W/m² | - |
| 1777643702 | 5.56° C | 74% | 1016.6 hPa | 0 mm | - | 98 W/m² | - |
| 1777643402 | 5.56° C | 74% | 1016.8 hPa | 0 mm | - | 75 W/m² | - |
| 1777643101 | 6.11° C | 74% | 1017 hPa | 0 mm | - | 60 W/m² | - |
| 1777642802 | 6.11° C | 75% | 1017 hPa | 0 mm | - | 81 W/m² | - |
| 1777642202 | 5.56° C | 78% | 1016.8 hPa | 0 mm | - | 100 W/m² | - |
| 1777641902 | 5° C | 80% | 1016.8 hPa | 0 mm | - | 77 W/m² | - |
* Rain latest hour (hover to see other rain measurements)
** Current wind speed in m/s (hover to see current wind gust speed)